Viborg, South Dakota
Current Conditions -  °F | °C
As of 11:55 AM on Saturday 20 Dec 2014 (Local Time) from KYKN Reporting Station
Overcast Overcast  
Wind Chill: 23°   Ceiling: 600
Heat Index: 32°   Visibility: 5mi
Dew Point: 28°   Wind: 12mph
Humidity: 87%   Direction: 170°S
Pressure: 30.06"   Gusts: NA
Location:  43.17°N, 97.08°W
Report Text: KYKN 201755Z AUTO 17010KT 5SM OVC006 00/M02 A3006 RMK AO1 10010 21010 57003
Loading
Personal Weather Stations






























Interactive Weather Map New forecast layout! Learn more

10-Day Weather Forecast

Advertisements
Track Severe Weather on mobile